sensor_id;sensor_type;location;lat;lon;timestamp;P1;durP1;ratioP1;P2;durP2;ratioP2
58918;SDS011;44704;50.122;19.932;2022-08-19T00:01:51;17.50;;;13.10;;
58918;SDS011;44704;50.122;19.932;2022-08-19T00:04:22;14.90;;;13.30;;
58918;SDS011;44704;50.122;19.932;2022-08-19T00:06:52;14.40;;;13.00;;
58918;SDS011;44704;50.122;19.932;2022-08-19T00:09:19;14.70;;;13.20;;
58918;SDS011;44704;50.122;19.932;2022-08-19T00:11:49;14.80;;;12.90;;
58918;SDS011;44704;50.122;19.932;2022-08-19T00:14:17;13.90;;;12.50;;
58918;SDS011;44704;50.122;19.932;2022-08-19T00:16:45;14.80;;;13.30;;
58918;SDS011;44704;50.122;19.932;2022-08-19T00:19:14;15.10;;;13.00;;
58918;SDS011;44704;50.122;19.932;2022-08-19T00:21:41;15.40;;;13.30;;
58918;SDS011;44704;50.122;19.932;2022-08-19T00:24:09;15.70;;;13.90;;
58918;SDS011;44704;50.122;19.932;2022-08-19T00:26:38;16.40;;;14.70;;
58918;SDS011;44704;50.122;19.932;2022-08-19T00:29:05;17.40;;;12.80;;
58918;SDS011;44704;50.122;19.932;2022-08-19T00:31:34;16.70;;;13.50;;
58918;SDS011;44704;50.122;19.932;2022-08-19T00:34:01;15.70;;;14.20;;
58918;SDS011;44704;50.122;19.932;2022-08-19T00:36:29;16.50;;;14.40;;
58918;SDS011;44704;50.122;19.932;2022-08-19T00:38:56;15.20;;;13.60;;
58918;SDS011;44704;50.122;19.932;2022-08-19T00:41:23;14.80;;;13.30;;
58918;SDS011;44704;50.122;19.932;2022-08-19T00:43:58;15.80;;;13.90;;
58918;SDS011;44704;50.122;19.932;2022-08-19T00:46:28;16.10;;;14.50;;
58918;SDS011;44704;50.122;19.932;2022-08-19T00:48:55;16.70;;;13.90;;
58918;SDS011;44704;50.122;19.932;2022-08-19T00:51:24;16.60;;;13.90;;
58918;SDS011;44704;50.122;19.932;2022-08-19T00:53:54;17.00;;;14.40;;
58918;SDS011;44704;50.122;19.932;2022-08-19T00:56:23;17.20;;;13.90;;
58918;SDS011;44704;50.122;19.932;2022-08-19T00:58:49;14.60;;;13.10;;
58918;SDS011;44704;50.122;19.932;2022-08-19T01:01:17;15.50;;;13.60;;
58918;SDS011;44704;50.122;19.932;2022-08-19T01:03:43;18.10;;;13.90;;
58918;SDS011;44704;50.122;19.932;2022-08-19T01:06:10;15.60;;;13.90;;
58918;SDS011;44704;50.122;19.932;2022-08-19T01:08:37;17.70;;;13.60;;
58918;SDS011;44704;50.122;19.932;2022-08-19T01:11:04;16.70;;;13.60;;
58918;SDS011;44704;50.122;19.932;2022-08-19T01:13:36;15.20;;;13.10;;
58918;SDS011;44704;50.122;19.932;2022-08-19T01:16:05;18.80;;;13.80;;
58918;SDS011;44704;50.122;19.932;2022-08-19T01:18:38;15.80;;;13.00;;
58918;SDS011;44704;50.122;19.932;2022-08-19T01:23:50;15.60;;;13.50;;
58918;SDS011;44704;50.122;19.932;2022-08-19T01:26:19;16.20;;;14.40;;
58918;SDS011;44704;50.122;19.932;2022-08-19T01:28:51;15.40;;;13.80;;
58918;SDS011;44704;50.122;19.932;2022-08-19T01:31:23;14.90;;;12.80;;
58918;SDS011;44704;50.122;19.932;2022-08-19T01:33:53;18.40;;;13.90;;
58918;SDS011;44704;50.122;19.932;2022-08-19T01:36:28;15.40;;;13.90;;
58918;SDS011;44704;50.122;19.932;2022-08-19T01:38:58;15.60;;;13.90;;
58918;SDS011;44704;50.122;19.932;2022-08-19T01:41:25;15.70;;;14.00;;
58918;SDS011;44704;50.122;19.932;2022-08-19T01:43:53;16.00;;;13.60;;
58918;SDS011;44704;50.122;19.932;2022-08-19T01:46:20;16.80;;;14.30;;
58918;SDS011;44704;50.122;19.932;2022-08-19T01:48:47;15.00;;;13.10;;
58918;SDS011;44704;50.122;19.932;2022-08-19T01:51:14;18.20;;;13.40;;
58918;SDS011;44704;50.122;19.932;2022-08-19T01:53:41;19.30;;;14.40;;
58918;SDS011;44704;50.122;19.932;2022-08-19T01:56:08;15.90;;;14.20;;
58918;SDS011;44704;50.122;19.932;2022-08-19T01:58:39;17.40;;;14.10;;
58918;SDS011;44704;50.122;19.932;2022-08-19T02:01:12;16.00;;;13.80;;
58918;SDS011;44704;50.122;19.932;2022-08-19T02:03:40;14.80;;;13.30;;
58918;SDS011;44704;50.122;19.932;2022-08-19T02:06:07;17.80;;;14.40;;
58918;SDS011;44704;50.122;19.932;2022-08-19T02:08:35;15.20;;;13.30;;
58918;SDS011;44704;50.122;19.932;2022-08-19T02:11:03;17.30;;;14.00;;
58918;SDS011;44704;50.122;19.932;2022-08-19T02:13:31;16.70;;;14.30;;
58918;SDS011;44704;50.122;19.932;2022-08-19T02:15:58;17.30;;;13.90;;
58918;SDS011;44704;50.122;19.932;2022-08-19T02:18:25;19.20;;;15.00;;
58918;SDS011;44704;50.122;19.932;2022-08-19T02:20:52;16.80;;;13.70;;
58918;SDS011;44704;50.122;19.932;2022-08-19T02:23:19;17.10;;;14.20;;
58918;SDS011;44704;50.122;19.932;2022-08-19T02:25:47;15.70;;;14.10;;
58918;SDS011;44704;50.122;19.932;2022-08-19T02:28:15;16.60;;;14.00;;
58918;SDS011;44704;50.122;19.932;2022-08-19T02:30:42;17.40;;;14.30;;
58918;SDS011;44704;50.122;19.932;2022-08-19T02:33:09;16.60;;;14.40;;
58918;SDS011;44704;50.122;19.932;2022-08-19T02:35:36;17.20;;;14.00;;
58918;SDS011;44704;50.122;19.932;2022-08-19T02:38:02;16.50;;;14.30;;
58918;SDS011;44704;50.122;19.932;2022-08-19T02:40:50;16.00;;;13.90;;
58918;SDS011;44704;50.122;19.932;2022-08-19T02:43:30;16.00;;;14.30;;
58918;SDS011;44704;50.122;19.932;2022-08-19T02:45:58;15.80;;;14.10;;
58918;SDS011;44704;50.122;19.932;2022-08-19T02:48:26;16.50;;;14.20;;
58918;SDS011;44704;50.122;19.932;2022-08-19T02:50:53;16.60;;;13.80;;
58918;SDS011;44704;50.122;19.932;2022-08-19T02:53:24;16.40;;;14.60;;
58918;SDS011;44704;50.122;19.932;2022-08-19T02:55:52;16.70;;;14.50;;
58918;SDS011;44704;50.122;19.932;2022-08-19T02:58:20;19.10;;;14.10;;
58918;SDS011;44704;50.122;19.932;2022-08-19T03:00:50;16.10;;;14.40;;
58918;SDS011;44704;50.122;19.932;2022-08-19T03:03:19;17.80;;;14.80;;
58918;SDS011;44704;50.122;19.932;2022-08-19T03:05:47;17.20;;;15.40;;
58918;SDS011;44704;50.122;19.932;2022-08-19T03:08:14;16.10;;;14.40;;
58918;SDS011;44704;50.122;19.932;2022-08-19T03:10:41;16.30;;;14.60;;
58918;SDS011;44704;50.122;19.932;2022-08-19T03:13:11;17.70;;;14.70;;
58918;SDS011;44704;50.122;19.932;2022-08-19T03:15:42;16.10;;;14.30;;
58918;SDS011;44704;50.122;19.932;2022-08-19T03:18:10;17.00;;;14.10;;
58918;SDS011;44704;50.122;19.932;2022-08-19T03:20:43;17.60;;;14.40;;
58918;SDS011;44704;50.122;19.932;2022-08-19T03:23:12;20.30;;;15.50;;
58918;SDS011;44704;50.122;19.932;2022-08-19T03:25:43;17.50;;;14.60;;
58918;SDS011;44704;50.122;19.932;2022-08-19T03:28:12;17.10;;;15.20;;
58918;SDS011;44704;50.122;19.932;2022-08-19T03:30:42;17.40;;;15.00;;
58918;SDS011;44704;50.122;19.932;2022-08-19T03:33:22;16.90;;;14.00;;
58918;SDS011;44704;50.122;19.932;2022-08-19T03:38:47;17.00;;;14.50;;
58918;SDS011;44704;50.122;19.932;2022-08-19T03:41:19;18.00;;;14.30;;
58918;SDS011;44704;50.122;19.932;2022-08-19T03:43:48;16.10;;;14.40;;
58918;SDS011;44704;50.122;19.932;2022-08-19T03:46:17;17.90;;;15.50;;
58918;SDS011;44704;50.122;19.932;2022-08-19T03:48:50;18.10;;;16.20;;
58918;SDS011;44704;50.122;19.932;2022-08-19T03:51:25;18.40;;;15.60;;
58918;SDS011;44704;50.122;19.932;2022-08-19T03:53:58;17.90;;;15.20;;
58918;SDS011;44704;50.122;19.932;2022-08-19T03:56:27;16.50;;;14.70;;
58918;SDS011;44704;50.122;19.932;2022-08-19T03:58:55;19.80;;;15.80;;
58918;SDS011;44704;50.122;19.932;2022-08-19T04:01:25;18.20;;;15.60;;
58918;SDS011;44704;50.122;19.932;2022-08-19T04:03:53;18.80;;;15.20;;
58918;SDS011;44704;50.122;19.932;2022-08-19T04:06:26;19.60;;;14.80;;
58918;SDS011;44704;50.122;19.932;2022-08-19T04:08:55;16.70;;;14.90;;
58918;SDS011;44704;50.122;19.932;2022-08-19T04:11:25;19.30;;;15.70;;
58918;SDS011;44704;50.122;19.932;2022-08-19T04:13:56;16.70;;;15.10;;
58918;SDS011;44704;50.122;19.932;2022-08-19T04:16:24;17.10;;;15.00;;
58918;SDS011;44704;50.122;19.932;2022-08-19T04:19:00;17.10;;;14.70;;
58918;SDS011;44704;50.122;19.932;2022-08-19T04:21:28;16.60;;;14.60;;
58918;SDS011;44704;50.122;19.932;2022-08-19T04:23:55;19.20;;;14.40;;
58918;SDS011;44704;50.122;19.932;2022-08-19T04:26:25;17.40;;;15.50;;
58918;SDS011;44704;50.122;19.932;2022-08-19T04:28:54;16.90;;;15.20;;
58918;SDS011;44704;50.122;19.932;2022-08-19T04:31:22;19.10;;;16.10;;
58918;SDS011;44704;50.122;19.932;2022-08-19T04:33:53;19.50;;;15.50;;
58918;SDS011;44704;50.122;19.932;2022-08-19T04:36:26;21.20;;;15.10;;
58918;SDS011;44704;50.122;19.932;2022-08-19T04:38:58;16.00;;;14.30;;
58918;SDS011;44704;50.122;19.932;2022-08-19T04:41:27;16.40;;;14.70;;
58918;SDS011;44704;50.122;19.932;2022-08-19T04:44:08;21.40;;;15.10;;
58918;SDS011;44704;50.122;19.932;2022-08-19T04:46:36;17.90;;;15.00;;
58918;SDS011;44704;50.122;19.932;2022-08-19T04:49:04;16.80;;;14.40;;
58918;SDS011;44704;50.122;19.932;2022-08-19T04:51:33;18.70;;;15.30;;
58918;SDS011;44704;50.122;19.932;2022-08-19T04:54:03;19.30;;;14.80;;
58918;SDS011;44704;50.122;19.932;2022-08-19T04:56:30;16.80;;;14.70;;
58918;SDS011;44704;50.122;19.932;2022-08-19T04:58:57;17.20;;;15.40;;
58918;SDS011;44704;50.122;19.932;2022-08-19T05:01:30;15.90;;;14.40;;
58918;SDS011;44704;50.122;19.932;2022-08-19T05:04:00;18.50;;;14.90;;
58918;SDS011;44704;50.122;19.932;2022-08-19T05:06:30;17.60;;;14.40;;
58918;SDS011;44704;50.122;19.932;2022-08-19T05:09:03;15.50;;;13.80;;
58918;SDS011;44704;50.122;19.932;2022-08-19T05:11:32;16.20;;;14.50;;
58918;SDS011;44704;50.122;19.932;2022-08-19T05:14:01;15.70;;;14.10;;
58918;SDS011;44704;50.122;19.932;2022-08-19T05:16:28;17.00;;;14.80;;
58918;SDS011;44704;50.122;19.932;2022-08-19T05:18:55;19.10;;;14.70;;
58918;SDS011;44704;50.122;19.932;2022-08-19T05:21:35;15.80;;;14.10;;
58918;SDS011;44704;50.122;19.932;2022-08-19T05:24:17;20.50;;;14.50;;
58918;SDS011;44704;50.122;19.932;2022-08-19T05:26:45;16.70;;;13.70;;
58918;SDS011;44704;50.122;19.932;2022-08-19T05:29:14;15.50;;;13.90;;
58918;SDS011;44704;50.122;19.932;2022-08-19T05:31:45;15.30;;;13.70;;
58918;SDS011;44704;50.122;19.932;2022-08-19T05:34:17;18.00;;;14.10;;
58918;SDS011;44704;50.122;19.932;2022-08-19T05:36:51;15.60;;;14.00;;
58918;SDS011;44704;50.122;19.932;2022-08-19T05:39:23;19.10;;;13.90;;
58918;SDS011;44704;50.122;19.932;2022-08-19T05:41:54;18.00;;;14.40;;
58918;SDS011;44704;50.122;19.932;2022-08-19T05:44:27;16.00;;;14.00;;
58918;SDS011;44704;50.122;19.932;2022-08-19T05:47:01;16.80;;;12.70;;
58918;SDS011;44704;50.122;19.932;2022-08-19T05:49:31;14.40;;;12.90;;
58918;SDS011;44704;50.122;19.932;2022-08-19T05:52:08;14.70;;;13.20;;
58918;SDS011;44704;50.122;19.932;2022-08-19T05:54:37;16.90;;;13.30;;
58918;SDS011;44704;50.122;19.932;2022-08-19T05:57:09;17.50;;;13.20;;
58918;SDS011;44704;50.122;19.932;2022-08-19T05:59:38;19.00;;;12.70;;
58918;SDS011;44704;50.122;19.932;2022-08-19T06:02:08;18.20;;;13.40;;
58918;SDS011;44704;50.122;19.932;2022-08-19T06:07:04;15.90;;;13.30;;
58918;SDS011;44704;50.122;19.932;2022-08-19T06:09:32;14.30;;;12.50;;
58918;SDS011;44704;50.122;19.932;2022-08-19T06:12:01;14.70;;;12.80;;
58918;SDS011;44704;50.122;19.932;2022-08-19T06:14:29;15.50;;;12.40;;
58918;SDS011;44704;50.122;19.932;2022-08-19T06:17:00;14.20;;;12.40;;
58918;SDS011;44704;50.122;19.932;2022-08-19T06:19:28;19.00;;;12.60;;
58918;SDS011;44704;50.122;19.932;2022-08-19T06:21:58;17.70;;;12.20;;
58918;SDS011;44704;50.122;19.932;2022-08-19T06:24:29;16.60;;;12.30;;
58918;SDS011;44704;50.122;19.932;2022-08-19T06:27:02;14.80;;;12.30;;
58918;SDS011;44704;50.122;19.932;2022-08-19T06:29:32;14.40;;;12.10;;
58918;SDS011;44704;50.122;19.932;2022-08-19T06:32:02;15.20;;;12.30;;
58918;SDS011;44704;50.122;19.932;2022-08-19T06:34:31;14.20;;;12.20;;
58918;SDS011;44704;50.122;19.932;2022-08-19T06:37:02;15.70;;;11.80;;
58918;SDS011;44704;50.122;19.932;2022-08-19T06:39:31;18.20;;;12.50;;
58918;SDS011;44704;50.122;19.932;2022-08-19T06:42:03;14.20;;;11.90;;
58918;SDS011;44704;50.122;19.932;2022-08-19T06:44:35;14.80;;;11.70;;
58918;SDS011;44704;50.122;19.932;2022-08-19T06:47:03;17.50;;;12.30;;
58918;SDS011;44704;50.122;19.932;2022-08-19T06:49:32;18.50;;;12.40;;
58918;SDS011;44704;50.122;19.932;2022-08-19T06:52:02;15.60;;;12.10;;
58918;SDS011;44704;50.122;19.932;2022-08-19T06:54:30;13.40;;;12.00;;
58918;SDS011;44704;50.122;19.932;2022-08-19T06:56:59;12.70;;;11.10;;
58918;SDS011;44704;50.122;19.932;2022-08-19T06:59:32;14.30;;;11.90;;
58918;SDS011;44704;50.122;19.932;2022-08-19T07:02:02;14.00;;;11.10;;
58918;SDS011;44704;50.122;19.932;2022-08-19T07:04:34;16.80;;;11.30;;
58918;SDS011;44704;50.122;19.932;2022-08-19T07:07:09;17.00;;;11.90;;
58918;SDS011;44704;50.122;19.932;2022-08-19T07:09:40;13.90;;;10.50;;
58918;SDS011;44704;50.122;19.932;2022-08-19T07:12:10;14.50;;;11.10;;
58918;SDS011;44704;50.122;19.932;2022-08-19T07:14:41;12.30;;;10.90;;
58918;SDS011;44704;50.122;19.932;2022-08-19T07:17:09;19.90;;;10.90;;
58918;SDS011;44704;50.122;19.932;2022-08-19T07:19:38;12.50;;;9.50;;
58918;SDS011;44704;50.122;19.932;2022-08-19T07:22:06;11.40;;;10.20;;
58918;SDS011;44704;50.122;19.932;2022-08-19T07:24:38;13.90;;;10.30;;
58918;SDS011;44704;50.122;19.932;2022-08-19T07:27:34;12.30;;;10.20;;
58918;SDS011;44704;50.122;19.932;2022-08-19T07:30:03;11.40;;;9.70;;
58918;SDS011;44704;50.122;19.932;2022-08-19T07:32:31;10.70;;;9.70;;
58918;SDS011;44704;50.122;19.932;2022-08-19T07:34:58;14.60;;;10.70;;
58918;SDS011;44704;50.122;19.932;2022-08-19T07:37:29;12.70;;;9.90;;
58918;SDS011;44704;50.122;19.932;2022-08-19T07:39:57;13.20;;;10.30;;
58918;SDS011;44704;50.122;19.932;2022-08-19T07:42:24;13.80;;;9.70;;
58918;SDS011;44704;50.122;19.932;2022-08-19T07:44:51;14.70;;;10.70;;
58918;SDS011;44704;50.122;19.932;2022-08-19T07:47:17;12.70;;;9.40;;
58918;SDS011;44704;50.122;19.932;2022-08-19T07:49:44;10.40;;;9.30;;
58918;SDS011;44704;50.122;19.932;2022-08-19T07:52:11;13.00;;;10.30;;
58918;SDS011;44704;50.122;19.932;2022-08-19T07:54:38;16.70;;;10.70;;
58918;SDS011;44704;50.122;19.932;2022-08-19T07:57:08;14.90;;;10.20;;
58918;SDS011;44704;50.122;19.932;2022-08-19T07:59:35;13.40;;;10.30;;
58918;SDS011;44704;50.122;19.932;2022-08-19T08:02:04;13.90;;;9.90;;
58918;SDS011;44704;50.122;19.932;2022-08-19T08:04:32;13.40;;;10.20;;
58918;SDS011;44704;50.122;19.932;2022-08-19T08:07:13;13.60;;;9.50;;
58918;SDS011;44704;50.122;19.932;2022-08-19T08:09:54;14.60;;;10.30;;
58918;SDS011;44704;50.122;19.932;2022-08-19T08:12:26;12.90;;;9.90;;
58918;SDS011;44704;50.122;19.932;2022-08-19T08:14:58;12.00;;;10.10;;
58918;SDS011;44704;50.122;19.932;2022-08-19T08:17:29;16.50;;;10.10;;
58918;SDS011;44704;50.122;19.932;2022-08-19T08:19:57;11.50;;;9.50;;
58918;SDS011;44704;50.122;19.932;2022-08-19T08:22:24;15.60;;;10.40;;
58918;SDS011;44704;50.122;19.932;2022-08-19T08:25:05;15.00;;;10.30;;
58918;SDS011;44704;50.122;19.932;2022-08-19T08:27:39;13.00;;;10.00;;
58918;SDS011;44704;50.122;19.932;2022-08-19T08:30:08;17.60;;;10.50;;
58918;SDS011;44704;50.122;19.932;2022-08-19T08:32:40;16.10;;;10.30;;
58918;SDS011;44704;50.122;19.932;2022-08-19T08:35:09;17.40;;;10.50;;
58918;SDS011;44704;50.122;19.932;2022-08-19T08:37:39;16.60;;;9.50;;
58918;SDS011;44704;50.122;19.932;2022-08-19T08:40:12;17.60;;;10.60;;
58918;SDS011;44704;50.122;19.932;2022-08-19T08:46:15;20.60;;;10.00;;
58918;SDS011;44704;50.122;19.932;2022-08-19T08:51:38;17.60;;;10.30;;
58918;SDS011;44704;50.122;19.932;2022-08-19T08:54:12;17.90;;;10.40;;
58918;SDS011;44704;50.122;19.932;2022-08-19T08:56:44;15.30;;;10.10;;
58918;SDS011;44704;50.122;19.932;2022-08-19T09:01:59;20.20;;;10.30;;
58918;SDS011;44704;50.122;19.932;2022-08-19T09:04:27;15.20;;;10.80;;
58918;SDS011;44704;50.122;19.932;2022-08-19T09:10:15;14.40;;;9.70;;
58918;SDS011;44704;50.122;19.932;2022-08-19T09:13:07;16.00;;;10.20;;
58918;SDS011;44704;50.122;19.932;2022-08-19T09:15:45;18.50;;;10.00;;
58918;SDS011;44704;50.122;19.932;2022-08-19T09:18:21;12.30;;;9.70;;
58918;SDS011;44704;50.122;19.932;2022-08-19T09:20:48;12.90;;;9.30;;
58918;SDS011;44704;50.122;19.932;2022-08-19T09:23:15;15.80;;;9.30;;
58918;SDS011;44704;50.122;19.932;2022-08-19T09:25:42;16.80;;;10.00;;
58918;SDS011;44704;50.122;19.932;2022-08-19T09:28:09;18.00;;;10.70;;
58918;SDS011;44704;50.122;19.932;2022-08-19T09:33:08;15.30;;;9.00;;
58918;SDS011;44704;50.122;19.932;2022-08-19T09:35:35;18.70;;;8.90;;
58918;SDS011;44704;50.122;19.932;2022-08-19T09:38:02;17.60;;;9.50;;
58918;SDS011;44704;50.122;19.932;2022-08-19T09:40:30;14.80;;;9.30;;
58918;SDS011;44704;50.122;19.932;2022-08-19T09:42:58;13.20;;;9.70;;
58918;SDS011;44704;50.122;19.932;2022-08-19T09:45:28;13.30;;;9.10;;
58918;SDS011;44704;50.122;19.932;2022-08-19T09:47:56;13.70;;;9.30;;
58918;SDS011;44704;50.122;19.932;2022-08-19T09:50:23;18.60;;;9.60;;
58918;SDS011;44704;50.122;19.932;2022-08-19T09:52:50;12.70;;;9.30;;
58918;SDS011;44704;50.122;19.932;2022-08-19T09:55:19;15.70;;;9.10;;
58918;SDS011;44704;50.122;19.932;2022-08-19T09:57:45;15.40;;;9.70;;
58918;SDS011;44704;50.122;19.932;2022-08-19T10:00:12;16.50;;;10.00;;
58918;SDS011;44704;50.122;19.932;2022-08-19T10:02:39;15.50;;;9.70;;
58918;SDS011;44704;50.122;19.932;2022-08-19T10:05:07;16.10;;;9.20;;
58918;SDS011;44704;50.122;19.932;2022-08-19T10:07:48;21.90;;;9.40;;
58918;SDS011;44704;50.122;19.932;2022-08-19T10:10:15;20.30;;;10.40;;
58918;SDS011;44704;50.122;19.932;2022-08-19T10:12:42;17.10;;;10.40;;
58918;SDS011;44704;50.122;19.932;2022-08-19T10:15:13;21.30;;;10.30;;
58918;SDS011;44704;50.122;19.932;2022-08-19T10:17:41;18.40;;;9.80;;
58918;SDS011;44704;50.122;19.932;2022-08-19T10:20:08;20.10;;;9.60;;
58918;SDS011;44704;50.122;19.932;2022-08-19T10:22:36;16.30;;;8.80;;
58918;SDS011;44704;50.122;19.932;2022-08-19T10:25:04;16.10;;;8.50;;
58918;SDS011;44704;50.122;19.932;2022-08-19T10:29:58;19.60;;;9.10;;
58918;SDS011;44704;50.122;19.932;2022-08-19T10:32:25;17.20;;;8.80;;
58918;SDS011;44704;50.122;19.932;2022-08-19T10:34:53;17.40;;;8.40;;
58918;SDS011;44704;50.122;19.932;2022-08-19T10:37:20;15.90;;;8.60;;
58918;SDS011;44704;50.122;19.932;2022-08-19T10:39:47;14.60;;;8.60;;
58918;SDS011;44704;50.122;19.932;2022-08-19T10:42:14;11.00;;;8.50;;
58918;SDS011;44704;50.122;19.932;2022-08-19T10:44:43;10.20;;;7.90;;
58918;SDS011;44704;50.122;19.932;2022-08-19T10:47:14;10.60;;;8.20;;
58918;SDS011;44704;50.122;19.932;2022-08-19T10:49:42;12.80;;;7.90;;
58918;SDS011;44704;50.122;19.932;2022-08-19T10:52:22;11.60;;;7.20;;
58918;SDS011;44704;50.122;19.932;2022-08-19T10:55:04;8.00;;;7.20;;
58918;SDS011;44704;50.122;19.932;2022-08-19T10:57:46;12.80;;;7.00;;
58918;SDS011;44704;50.122;19.932;2022-08-19T11:00:13;10.50;;;7.50;;
58918;SDS011;44704;50.122;19.932;2022-08-19T11:02:40;8.50;;;7.00;;
58918;SDS011;44704;50.122;19.932;2022-08-19T11:05:08;11.50;;;7.20;;
58918;SDS011;44704;50.122;19.932;2022-08-19T11:07:39;7.90;;;7.20;;
58918;SDS011;44704;50.122;19.932;2022-08-19T11:10:09;14.50;;;7.30;;
58918;SDS011;44704;50.122;19.932;2022-08-19T11:12:41;9.40;;;7.00;;
58918;SDS011;44704;50.122;19.932;2022-08-19T11:15:09;15.60;;;7.40;;
58918;SDS011;44704;50.122;19.932;2022-08-19T11:17:38;14.90;;;8.00;;
58918;SDS011;44704;50.122;19.932;2022-08-19T11:20:12;15.40;;;7.30;;
58918;SDS011;44704;50.122;19.932;2022-08-19T11:22:41;12.20;;;7.80;;
58918;SDS011;44704;50.122;19.932;2022-08-19T11:25:09;7.70;;;6.90;;
58918;SDS011;44704;50.122;19.932;2022-08-19T11:27:38;14.20;;;7.80;;
58918;SDS011;44704;50.122;19.932;2022-08-19T11:30:09;9.50;;;7.20;;
58918;SDS011;44704;50.122;19.932;2022-08-19T11:32:37;7.90;;;7.00;;
58918;SDS011;44704;50.122;19.932;2022-08-19T11:35:05;8.50;;;7.10;;
58918;SDS011;44704;50.122;19.932;2022-08-19T11:37:32;8.80;;;7.20;;
58918;SDS011;44704;50.122;19.932;2022-08-19T11:40:05;12.80;;;7.10;;
58918;SDS011;44704;50.122;19.932;2022-08-19T11:42:32;11.60;;;7.60;;
58918;SDS011;44704;50.122;19.932;2022-08-19T11:45:13;10.20;;;6.90;;
58918;SDS011;44704;50.122;19.932;2022-08-19T11:47:40;9.70;;;7.20;;
58918;SDS011;44704;50.122;19.932;2022-08-19T11:50:07;11.30;;;7.20;;
58918;SDS011;44704;50.122;19.932;2022-08-19T11:52:36;9.60;;;7.60;;
58918;SDS011;44704;50.122;19.932;2022-08-19T11:55:02;9.30;;;6.80;;
58918;SDS011;44704;50.122;19.932;2022-08-19T11:57:29;9.30;;;7.40;;
58918;SDS011;44704;50.122;19.932;2022-08-19T12:03:46;12.80;;;6.80;;
58918;SDS011;44704;50.122;19.932;2022-08-19T12:06:15;8.20;;;7.10;;
58918;SDS011;44704;50.122;19.932;2022-08-19T12:08:45;8.70;;;7.10;;
58918;SDS011;44704;50.122;19.932;2022-08-19T12:11:14;8.70;;;6.60;;
58918;SDS011;44704;50.122;19.932;2022-08-19T12:13:41;7.50;;;6.80;;
58918;SDS011;44704;50.122;19.932;2022-08-19T12:16:14;7.60;;;6.60;;
58918;SDS011;44704;50.122;19.932;2022-08-19T12:18:43;10.50;;;7.20;;
58918;SDS011;44704;50.122;19.932;2022-08-19T12:21:13;8.00;;;7.20;;
58918;SDS011;44704;50.122;19.932;2022-08-19T12:23:41;7.50;;;6.80;;
58918;SDS011;44704;50.122;19.932;2022-08-19T12:26:14;7.30;;;6.50;;
58918;SDS011;44704;50.122;19.932;2022-08-19T12:28:41;8.10;;;6.30;;
58918;SDS011;44704;50.122;19.932;2022-08-19T12:33:40;7.10;;;6.30;;
58918;SDS011;44704;50.122;19.932;2022-08-19T12:36:09;9.10;;;6.20;;
58918;SDS011;44704;50.122;19.932;2022-08-19T12:38:39;8.30;;;6.30;;
58918;SDS011;44704;50.122;19.932;2022-08-19T12:41:08;12.50;;;6.60;;
58918;SDS011;44704;50.122;19.932;2022-08-19T12:43:38;10.90;;;6.40;;
58918;SDS011;44704;50.122;19.932;2022-08-19T12:46:06;9.00;;;6.40;;
58918;SDS011;44704;50.122;19.932;2022-08-19T12:48:34;10.30;;;6.30;;
58918;SDS011;44704;50.122;19.932;2022-08-19T12:51:06;10.00;;;5.20;;
58918;SDS011;44704;50.122;19.932;2022-08-19T12:53:34;7.70;;;6.00;;
58918;SDS011;44704;50.122;19.932;2022-08-19T12:58:29;8.40;;;6.20;;
58918;SDS011;44704;50.122;19.932;2022-08-19T13:00:56;7.10;;;6.10;;
58918;SDS011;44704;50.122;19.932;2022-08-19T13:03:24;7.10;;;6.30;;
58918;SDS011;44704;50.122;19.932;2022-08-19T13:05:55;7.10;;;5.90;;
58918;SDS011;44704;50.122;19.932;2022-08-19T13:08:22;7.50;;;6.50;;
58918;SDS011;44704;50.122;19.932;2022-08-19T13:10:49;8.40;;;6.30;;
58918;SDS011;44704;50.122;19.932;2022-08-19T13:13:17;10.60;;;6.60;;
58918;SDS011;44704;50.122;19.932;2022-08-19T13:15:43;7.80;;;5.80;;
58918;SDS011;44704;50.122;19.932;2022-08-19T13:18:12;8.50;;;6.00;;
58918;SDS011;44704;50.122;19.932;2022-08-19T13:20:40;12.20;;;6.30;;
58918;SDS011;44704;50.122;19.932;2022-08-19T13:23:08;8.60;;;6.30;;
58918;SDS011;44704;50.122;19.932;2022-08-19T13:25:36;10.60;;;6.80;;
58918;SDS011;44704;50.122;19.932;2022-08-19T13:28:03;7.30;;;6.50;;
58918;SDS011;44704;50.122;19.932;2022-08-19T13:30:32;7.70;;;6.00;;
58918;SDS011;44704;50.122;19.932;2022-08-19T13:33:14;11.30;;;5.50;;
58918;SDS011;44704;50.122;19.932;2022-08-19T13:35:45;12.10;;;5.80;;
58918;SDS011;44704;50.122;19.932;2022-08-19T13:38:23;7.20;;;5.10;;
58918;SDS011;44704;50.122;19.932;2022-08-19T13:40:51;8.80;;;6.00;;
58918;SDS011;44704;50.122;19.932;2022-08-19T13:43:20;10.80;;;6.20;;
58918;SDS011;44704;50.122;19.932;2022-08-19T13:45:50;9.00;;;5.90;;
58918;SDS011;44704;50.122;19.932;2022-08-19T13:48:19;7.90;;;6.10;;
58918;SDS011;44704;50.122;19.932;2022-08-19T13:50:47;8.60;;;6.10;;
58918;SDS011;44704;50.122;19.932;2022-08-19T13:53:15;11.10;;;5.90;;
58918;SDS011;44704;50.122;19.932;2022-08-19T13:55:43;6.60;;;5.40;;
58918;SDS011;44704;50.122;19.932;2022-08-19T13:58:11;7.00;;;6.00;;
58918;SDS011;44704;50.122;19.932;2022-08-19T14:00:40;8.50;;;6.00;;
58918;SDS011;44704;50.122;19.932;2022-08-19T14:03:11;8.60;;;5.80;;
58918;SDS011;44704;50.122;19.932;2022-08-19T14:05:40;7.00;;;5.50;;
58918;SDS011;44704;50.122;19.932;2022-08-19T14:08:07;7.10;;;5.50;;
58918;SDS011;44704;50.122;19.932;2022-08-19T14:10:35;6.60;;;5.60;;
58918;SDS011;44704;50.122;19.932;2022-08-19T14:13:02;8.00;;;6.00;;
58918;SDS011;44704;50.122;19.932;2022-08-19T14:15:30;8.60;;;6.50;;
58918;SDS011;44704;50.122;19.932;2022-08-19T14:17:57;7.00;;;6.30;;
58918;SDS011;44704;50.122;19.932;2022-08-19T14:20:25;10.60;;;6.20;;
58918;SDS011;44704;50.122;19.932;2022-08-19T14:22:53;8.00;;;6.50;;
58918;SDS011;44704;50.122;19.932;2022-08-19T14:25:23;6.60;;;6.00;;
58918;SDS011;44704;50.122;19.932;2022-08-19T14:27:52;7.00;;;6.20;;
58918;SDS011;44704;50.122;19.932;2022-08-19T14:30:21;7.40;;;6.30;;
58918;SDS011;44704;50.122;19.932;2022-08-19T14:32:54;8.90;;;5.40;;
58918;SDS011;44704;50.122;19.932;2022-08-19T14:35:22;7.90;;;6.10;;
58918;SDS011;44704;50.122;19.932;2022-08-19T14:40:19;10.00;;;5.50;;
58918;SDS011;44704;50.122;19.932;2022-08-19T14:42:53;10.00;;;5.70;;
58918;SDS011;44704;50.122;19.932;2022-08-19T14:45:25;6.10;;;5.10;;
58918;SDS011;44704;50.122;19.932;2022-08-19T14:47:54;7.60;;;5.00;;
58918;SDS011;44704;50.122;19.932;2022-08-19T14:50:21;7.80;;;4.90;;
58918;SDS011;44704;50.122;19.932;2022-08-19T14:52:48;7.10;;;5.40;;
58918;SDS011;44704;50.122;19.932;2022-08-19T14:55:15;8.70;;;5.90;;
58918;SDS011;44704;50.122;19.932;2022-08-19T14:57:44;8.40;;;6.10;;
58918;SDS011;44704;50.122;19.932;2022-08-19T15:00:12;7.60;;;5.90;;
58918;SDS011;44704;50.122;19.932;2022-08-19T15:07:33;8.10;;;5.60;;
58918;SDS011;44704;50.122;19.932;2022-08-19T15:10:00;6.70;;;5.50;;
58918;SDS011;44704;50.122;19.932;2022-08-19T15:12:27;6.40;;;5.40;;